createdAt,value
2022-10-11T00:01:17.829Z,6.05
2022-10-11T00:03:44.267Z,5.95
2022-10-11T00:06:10.622Z,2.00
2022-10-11T00:08:39.080Z,2.83
2022-10-11T00:11:07.292Z,1.25
2022-10-11T00:13:33.822Z,2.72
2022-10-11T00:16:00.425Z,6.00
2022-10-11T00:18:27.023Z,2.13
2022-10-11T00:21:08.309Z,2.67
2022-10-11T00:23:35.201Z,1.83
2022-10-11T00:26:04.892Z,1.30
2022-10-11T00:28:31.759Z,0.70
2022-10-11T00:30:58.245Z,0.40
2022-10-11T00:33:24.727Z,0.93
2022-10-11T00:35:51.175Z,1.83
2022-10-11T00:38:18.139Z,1.15
2022-10-11T00:40:45.816Z,3.15
2022-10-11T00:43:17.810Z,4.47
2022-10-11T00:46:01.444Z,2.93
2022-10-11T00:48:42.130Z,0.63
2022-10-11T00:51:32.672Z,0.60
2022-10-11T00:54:01.303Z,1.05
2022-10-11T00:56:33.805Z,1.23
2022-10-11T00:59:04.258Z,2.20
2022-10-11T01:01:31.043Z,0.32
2022-10-11T01:03:57.962Z,0.85
2022-10-11T01:06:24.666Z,1.55
2022-10-11T01:08:52.772Z,0.70
2022-10-11T01:11:23.359Z,2.33
2022-10-11T01:14:08.656Z,1.55
2022-10-11T01:16:39.235Z,6.15
2022-10-11T01:19:33.661Z,3.08
2022-10-11T01:22:18.740Z,2.92
2022-10-11T01:25:23.754Z,3.07
2022-10-11T01:28:25.625Z,2.88
2022-10-11T01:30:54.851Z,3.17
2022-10-11T01:33:30.291Z,3.50
2022-10-11T01:36:27.573Z,4.95
2022-10-11T01:39:11.354Z,3.53
2022-10-11T01:41:41.203Z,2.92
2022-10-11T01:44:09.278Z,5.75
2022-10-11T01:46:36.671Z,3.20
2022-10-11T01:49:04.720Z,5.57
2022-10-11T01:51:34.532Z,3.33
2022-10-11T01:54:03.931Z,3.85
2022-10-11T01:57:13.369Z,4.97
2022-10-11T02:00:15.175Z,1.52
2022-10-11T02:03:05.095Z,4.55
2022-10-11T02:05:57.687Z,3.03
2022-10-11T02:08:27.423Z,2.50
2022-10-11T02:11:11.620Z,5.65
2022-10-11T02:13:46.305Z,4.65
2022-10-11T02:16:18.718Z,7.88
2022-10-11T02:18:49.974Z,4.07
2022-10-11T02:21:19.372Z,2.25
2022-10-11T02:23:56.177Z,0.70
2022-10-11T02:26:24.923Z,4.18
2022-10-11T02:28:56.639Z,2.63
2022-10-11T02:31:25.012Z,1.00
2022-10-11T02:34:05.350Z,4.18
2022-10-11T02:36:55.312Z,4.63
2022-10-11T02:39:29.615Z,1.40
2022-10-11T02:41:59.809Z,1.88
2022-10-11T02:44:37.653Z,2.33
2022-10-11T02:47:05.375Z,2.92
2022-10-11T02:49:32.439Z,5.22
2022-10-11T02:51:59.180Z,3.55
2022-10-11T02:54:26.126Z,1.35
2022-10-11T02:56:52.571Z,5.33
2022-10-11T02:59:19.139Z,3.17
2022-10-11T03:01:45.569Z,2.13
2022-10-11T03:04:12.007Z,2.60
2022-10-11T03:06:38.369Z,3.35
2022-10-11T03:09:04.727Z,5.47
2022-10-11T03:11:31.146Z,2.35
2022-10-11T03:13:57.479Z,2.50
2022-10-11T03:16:23.984Z,2.33
2022-10-11T03:18:51.098Z,3.10
2022-10-11T03:21:17.443Z,3.20
2022-10-11T03:23:43.863Z,1.40
2022-10-11T03:26:10.209Z,2.33
2022-10-11T03:28:36.646Z,2.78
2022-10-11T03:31:03.989Z,3.88
2022-10-11T03:33:30.364Z,1.50
2022-10-11T03:35:56.734Z,2.55
2022-10-11T03:38:23.186Z,1.08
2022-10-11T03:40:49.958Z,2.40
2022-10-11T03:43:16.547Z,2.78
2022-10-11T03:45:43.174Z,1.23
2022-10-11T03:48:10.543Z,1.45
2022-10-11T03:50:37.594Z,0.63
2022-10-11T03:53:05.021Z,0.68
2022-10-11T03:55:31.431Z,2.25
2022-10-11T03:57:57.862Z,2.27
2022-10-11T04:00:24.492Z,0.90
2022-10-11T04:02:50.907Z,2.45
2022-10-11T04:05:17.296Z,1.30
2022-10-11T04:07:43.662Z,0.90
2022-10-11T04:10:10.199Z,2.37
2022-10-11T04:12:38.294Z,2.47
2022-10-11T04:15:05.957Z,1.77
2022-10-11T04:17:32.333Z,3.67
2022-10-11T04:19:58.683Z,2.88
2022-10-11T04:22:25.097Z,2.17
2022-10-11T04:24:52.104Z,4.05
2022-10-11T04:27:18.533Z,2.33
2022-10-11T04:29:44.852Z,1.10
2022-10-11T04:32:11.265Z,2.30
2022-10-11T04:34:37.983Z,1.97
2022-10-11T04:37:04.335Z,3.45
2022-10-11T04:39:30.753Z,3.92
2022-10-11T04:41:57.086Z,2.70
2022-10-11T04:44:23.662Z,2.22
2022-10-11T04:46:50.015Z,2.17
2022-10-11T04:49:16.339Z,5.90
2022-10-11T04:51:42.782Z,4.05
2022-10-11T04:54:09.110Z,1.55
2022-10-11T04:56:35.511Z,2.08
2022-10-11T04:59:01.828Z,3.03
2022-10-11T05:01:28.174Z,2.40
2022-10-11T05:03:54.686Z,2.63
2022-10-11T05:06:21.056Z,2.08
2022-10-11T05:08:47.423Z,4.72
2022-10-11T05:11:16.274Z,1.83
2022-10-11T05:13:43.840Z,4.03
2022-10-11T05:16:11.649Z,4.70
2022-10-11T05:18:38.954Z,3.17
2022-10-11T05:21:08.951Z,5.05
2022-10-11T05:23:36.701Z,1.80
2022-10-11T05:26:04.192Z,2.95
2022-10-11T05:28:31.585Z,2.15
2022-10-11T05:30:58.292Z,1.92
2022-10-11T05:33:25.245Z,3.03
2022-10-11T05:35:51.873Z,3.20
2022-10-11T05:38:19.003Z,1.85
2022-10-11T05:40:45.430Z,2.67
2022-10-11T05:43:11.930Z,1.98
2022-10-11T05:45:39.826Z,6.22
2022-10-11T05:48:06.541Z,2.27
2022-10-11T05:50:32.930Z,3.08
2022-10-11T05:52:59.449Z,4.95
2022-10-11T05:55:25.926Z,4.32
2022-10-11T05:57:56.498Z,2.63
2022-10-11T06:00:24.361Z,5.77
2022-10-11T06:02:50.768Z,2.30
2022-10-11T06:05:17.446Z,2.45
2022-10-11T06:07:44.708Z,4.25
2022-10-11T06:10:11.245Z,6.38
2022-10-11T06:12:37.660Z,4.90
2022-10-11T06:15:05.046Z,3.72
2022-10-11T06:17:31.612Z,3.20
2022-10-11T06:19:58.146Z,6.35
2022-10-11T06:22:24.547Z,2.38
2022-10-11T06:24:50.884Z,6.37
2022-10-11T06:27:17.239Z,4.72
2022-10-11T06:29:43.610Z,3.88
2022-10-11T06:32:10.052Z,5.45
2022-10-11T06:34:36.393Z,2.22
2022-10-11T06:37:02.833Z,2.37
2022-10-11T06:39:29.227Z,9.02
2022-10-11T06:41:55.583Z,4.25
2022-10-11T06:44:22.003Z,3.60
2022-10-11T06:46:48.497Z,3.40
2022-10-11T06:49:18.240Z,2.23
2022-10-11T06:51:47.129Z,6.68
2022-10-11T06:54:13.592Z,5.55
2022-10-11T06:56:40.787Z,7.13
2022-10-11T06:59:07.197Z,6.40
2022-10-11T07:01:33.635Z,4.53
2022-10-11T07:04:01.553Z,5.97
2022-10-11T07:06:31.052Z,7.20
2022-10-11T07:09:00.210Z,2.25
2022-10-11T07:11:27.870Z,7.00
2022-10-11T07:13:59.817Z,6.17
2022-10-11T07:16:27.771Z,4.28
2022-10-11T07:19:00.570Z,7.60
2022-10-11T07:21:29.309Z,4.50
2022-10-11T07:23:55.762Z,5.97
2022-10-11T07:26:22.175Z,4.90
2022-10-11T07:28:48.795Z,5.13
2022-10-11T07:31:19.826Z,9.82
2022-10-11T07:33:46.451Z,3.53
2022-10-11T07:36:13.305Z,6.05
2022-10-11T07:38:41.002Z,4.47
2022-10-11T07:41:08.168Z,2.65
2022-10-11T07:43:35.433Z,7.78
2022-10-11T07:46:04.662Z,7.15
2022-10-11T07:48:32.670Z,8.18
2022-10-11T07:51:25.992Z,8.20
2022-10-11T07:53:55.693Z,6.90
2022-10-11T07:56:24.881Z,6.20
2022-10-11T07:58:53.462Z,4.43
2022-10-11T08:01:20.346Z,4.82
2022-10-11T08:03:47.650Z,4.57
2022-10-11T08:06:17.031Z,9.70
2022-10-11T08:08:43.384Z,4.38
2022-10-11T08:11:10.395Z,7.13
2022-10-11T08:13:36.820Z,4.53
2022-10-11T08:16:10.215Z,4.37
2022-10-11T08:18:36.589Z,8.45
2022-10-11T08:21:08.226Z,6.07
2022-10-11T08:23:34.703Z,3.97
2022-10-11T08:26:01.793Z,8.05
2022-10-11T08:28:28.499Z,3.83
2022-10-11T08:30:55.220Z,4.88
2022-10-11T08:33:23.616Z,4.05
2022-10-11T08:35:52.138Z,6.00
2022-10-11T08:38:19.494Z,7.45
2022-10-11T08:40:47.646Z,6.77
2022-10-11T08:43:35.629Z,5.90
2022-10-11T08:46:04.700Z,6.95
2022-10-11T08:48:49.091Z,4.93
2022-10-11T08:51:24.813Z,8.25
2022-10-11T08:54:04.683Z,4.97
2022-10-11T08:56:37.632Z,7.60
2022-10-11T08:59:28.299Z,7.68
2022-10-11T09:02:03.182Z,7.93
2022-10-11T09:04:32.194Z,7.95
2022-10-11T09:07:25.753Z,20.80
2022-10-11T09:10:07.314Z,25.33
2022-10-11T09:12:50.471Z,31.42
2022-10-11T09:15:26.065Z,47.30
2022-10-11T09:18:04.160Z,47.92
2022-10-11T09:20:51.800Z,51.30
2022-10-11T09:23:39.536Z,50.58
2022-10-11T09:26:17.544Z,51.20
2022-10-11T09:29:14.264Z,30.90
2022-10-11T09:31:46.018Z,12.57
2022-10-11T09:34:14.458Z,9.27
2022-10-11T09:36:55.849Z,9.68
2022-10-11T09:39:33.123Z,7.47
2022-10-11T09:42:10.889Z,5.93
2022-10-11T09:44:41.553Z,6.07
2022-10-11T09:47:16.227Z,5.73
2022-10-11T09:50:03.693Z,8.20
2022-10-11T09:52:30.060Z,12.43
2022-10-11T09:55:00.389Z,4.68
2022-10-11T09:57:33.025Z,5.00
2022-10-11T10:00:02.576Z,6.13
2022-10-11T10:02:38.547Z,7.20
2022-10-11T10:05:10.976Z,10.32
2022-10-11T10:07:40.909Z,6.30
2022-10-11T10:10:40.264Z,10.80
2022-10-11T10:13:21.012Z,4.17
2022-10-11T10:15:50.815Z,4.18
2022-10-11T10:18:34.347Z,9.52
2022-10-11T10:21:01.832Z,8.93
2022-10-11T10:23:36.696Z,3.00
2022-10-11T10:26:24.904Z,5.47
2022-10-11T10:29:01.298Z,4.50
2022-10-11T10:31:55.321Z,5.25
2022-10-11T10:34:26.251Z,7.72
2022-10-11T10:37:02.213Z,6.82
2022-10-11T10:39:44.508Z,3.53
2022-10-11T10:42:17.190Z,5.38
2022-10-11T10:44:52.363Z,4.47
2022-10-11T10:47:21.814Z,5.90
2022-10-11T10:50:02.441Z,5.65
2022-10-11T10:52:43.537Z,5.93
2022-10-11T10:55:31.382Z,3.13
2022-10-11T10:58:15.071Z,4.55
2022-10-11T11:00:50.300Z,6.20
2022-10-11T11:03:46.326Z,7.60
2022-10-11T11:06:34.152Z,4.57
2022-10-11T11:09:21.175Z,3.70
2022-10-11T11:12:05.470Z,7.07
2022-10-11T11:14:52.119Z,3.08
2022-10-11T11:17:43.527Z,8.10
2022-10-11T11:20:12.813Z,5.23
2022-10-11T11:23:22.031Z,4.75
2022-10-11T11:26:31.323Z,5.50
2022-10-11T11:29:13.475Z,5.30
2022-10-11T11:31:56.682Z,5.78
2022-10-11T11:34:26.647Z,5.13
2022-10-11T11:37:00.199Z,6.35
2022-10-11T11:39:30.650Z,4.15
2022-10-11T11:42:07.726Z,6.53
2022-10-11T11:44:40.184Z,5.75
2022-10-11T11:47:19.867Z,4.90
2022-10-11T11:49:53.295Z,3.25
2022-10-11T11:52:36.142Z,5.53
2022-10-11T11:55:14.211Z,8.05
2022-10-11T11:58:03.280Z,6.15
2022-10-11T12:01:10.080Z,7.00
2022-10-11T12:03:47.334Z,4.20
2022-10-11T12:06:13.845Z,5.40
2022-10-11T12:08:46.263Z,7.43
2022-10-11T12:11:25.451Z,6.30
2022-10-11T12:13:53.933Z,6.23
2022-10-11T12:16:22.044Z,6.30
2022-10-11T12:18:55.933Z,6.90
2022-10-11T12:21:25.216Z,4.97
2022-10-11T12:24:00.496Z,3.35
2022-10-11T12:26:47.680Z,6.50
2022-10-11T12:29:17.207Z,5.85
2022-10-11T12:31:46.326Z,5.47
2022-10-11T12:34:37.682Z,4.63
2022-10-11T12:37:19.592Z,6.47
2022-10-11T12:40:27.430Z,4.70
2022-10-11T12:43:12.037Z,6.13
2022-10-11T12:45:38.573Z,3.83
2022-10-11T12:48:22.674Z,3.50
2022-10-11T12:51:02.815Z,5.93
2022-10-11T12:54:25.611Z,5.63
2022-10-11T12:56:57.562Z,5.13
2022-10-11T12:59:24.538Z,3.83
2022-10-11T13:01:54.566Z,4.22
2022-10-11T13:04:25.284Z,7.80
2022-10-11T13:07:01.081Z,5.60
2022-10-11T13:09:39.123Z,3.72
2022-10-11T13:12:09.158Z,4.40
2022-10-11T13:14:42.342Z,11.48
2022-10-11T13:17:19.468Z,5.50
2022-10-11T13:19:46.149Z,5.43
2022-10-11T13:22:23.170Z,4.38
2022-10-11T13:24:49.684Z,4.55
2022-10-11T13:27:20.664Z,5.57
2022-10-11T13:29:49.089Z,4.25
2022-10-11T13:32:24.952Z,5.27
2022-10-11T13:35:01.590Z,6.05
2022-10-11T13:37:29.961Z,2.90
2022-10-11T13:39:57.578Z,3.80
2022-10-11T13:42:29.610Z,6.43
2022-10-11T13:44:56.320Z,4.73
2022-10-11T13:47:27.135Z,7.35
2022-10-11T13:50:15.474Z,4.78
2022-10-11T13:52:57.213Z,3.65
2022-10-11T13:55:30.404Z,7.43
2022-10-11T13:57:58.524Z,4.57
2022-10-11T14:00:34.904Z,8.63
2022-10-11T14:03:22.220Z,8.75
2022-10-11T14:05:55.704Z,4.80
2022-10-11T14:08:25.846Z,7.03
2022-10-11T14:10:56.725Z,5.53
2022-10-11T14:13:31.995Z,5.25
2022-10-11T14:16:18.630Z,7.07
2022-10-11T14:18:50.774Z,9.00
2022-10-11T14:21:23.300Z,4.70
2022-10-11T14:24:02.095Z,2.47
2022-10-11T14:26:33.734Z,7.68
2022-10-11T14:29:04.485Z,7.50
2022-10-11T14:31:31.168Z,6.63
2022-10-11T14:33:58.083Z,6.63
2022-10-11T14:36:26.013Z,5.60
2022-10-11T14:38:52.825Z,2.28
2022-10-11T14:41:19.535Z,7.53
2022-10-11T14:43:45.943Z,6.95
2022-10-11T14:46:24.934Z,4.75
2022-10-11T14:48:56.602Z,4.87
2022-10-11T14:51:29.914Z,4.57
2022-10-11T14:53:57.691Z,5.63
2022-10-11T14:56:24.302Z,6.10
2022-10-11T14:58:50.664Z,4.30
2022-10-11T15:01:17.514Z,4.97
2022-10-11T15:03:44.038Z,6.45
2022-10-11T15:06:36.112Z,7.30
2022-10-11T15:09:03.425Z,5.13
2022-10-11T15:11:29.772Z,6.10
2022-10-11T15:13:56.157Z,7.07
2022-10-11T15:16:23.102Z,5.75
2022-10-11T15:18:52.879Z,11.85
2022-10-11T15:21:22.879Z,4.28
2022-10-11T15:23:50.748Z,7.13
2022-10-11T15:26:21.336Z,7.63
2022-10-11T15:28:49.291Z,4.55
2022-10-11T15:31:15.811Z,11.40
2022-10-11T15:33:42.276Z,7.85
2022-10-11T15:36:14.867Z,6.25
2022-10-11T15:38:41.873Z,8.73
2022-10-11T15:41:12.843Z,4.43
2022-10-11T15:43:40.046Z,4.60
2022-10-11T15:46:06.729Z,4.20
2022-10-11T15:48:33.930Z,9.07
2022-10-11T15:51:00.390Z,10.10
2022-10-11T15:53:30.957Z,8.48
2022-10-11T15:56:00.916Z,15.18
2022-10-11T15:58:36.512Z,14.95
2022-10-11T16:01:09.782Z,5.90
2022-10-11T16:03:36.610Z,6.33
2022-10-11T16:06:05.469Z,4.47
2022-10-11T16:08:33.823Z,5.10
2022-10-11T16:11:00.862Z,3.90
2022-10-11T16:13:27.501Z,8.52
2022-10-11T16:15:54.041Z,7.83
2022-10-11T16:18:22.097Z,5.03
2022-10-11T16:20:51.641Z,4.57
2022-10-11T16:23:19.873Z,3.75
2022-10-11T16:25:46.255Z,8.45
2022-10-11T16:28:12.622Z,7.40
2022-10-11T16:30:43.108Z,3.28
2022-10-11T16:33:09.794Z,5.95
2022-10-11T16:35:36.278Z,4.65
2022-10-11T16:38:02.678Z,4.72
2022-10-11T16:40:30.062Z,5.07
2022-10-11T16:42:56.641Z,7.70
2022-10-11T16:45:23.406Z,10.07
2022-10-11T16:47:50.227Z,7.18
2022-10-11T16:50:16.599Z,9.30
2022-10-11T16:52:42.976Z,7.23
2022-10-11T16:55:09.698Z,6.97
2022-10-11T16:57:39.746Z,5.25
2022-10-11T17:00:08.999Z,7.45
2022-10-11T17:02:36.572Z,8.00
2022-10-11T17:05:03.886Z,6.40
2022-10-11T17:07:30.720Z,3.78
2022-10-11T17:09:57.952Z,6.88
2022-10-11T17:12:24.725Z,7.30
2022-10-11T17:14:51.397Z,5.22
2022-10-11T17:17:18.540Z,6.50
2022-10-11T17:19:47.269Z,2.15
2022-10-11T17:22:17.470Z,4.97
2022-10-11T17:24:44.759Z,7.57
2022-10-11T17:27:11.275Z,3.03
2022-10-11T17:29:37.835Z,10.53
2022-10-11T17:32:04.569Z,8.38
2022-10-11T17:34:31.072Z,4.72
2022-10-11T17:36:57.616Z,4.72
2022-10-11T17:39:25.679Z,6.70
2022-10-11T17:41:52.922Z,2.93
2022-10-11T17:44:19.702Z,4.45
2022-10-11T17:46:46.605Z,8.18
2022-10-11T17:49:13.902Z,6.45
2022-10-11T17:51:41.079Z,13.23
2022-10-11T17:54:12.254Z,5.10
2022-10-11T17:56:40.240Z,4.70
2022-10-11T17:59:07.686Z,6.95
2022-10-11T18:01:34.296Z,6.93
2022-10-11T18:04:03.420Z,8.32
2022-10-11T18:06:31.997Z,8.00
2022-10-11T18:09:02.979Z,7.15
2022-10-11T18:11:30.272Z,5.07
2022-10-11T18:13:56.748Z,3.28
2022-10-11T18:16:28.631Z,3.42
2022-10-11T18:18:57.211Z,4.77
2022-10-11T18:21:28.675Z,8.48
2022-10-11T18:24:02.572Z,4.00
2022-10-11T18:26:30.711Z,4.45
2022-10-11T18:28:57.551Z,5.78
2022-10-11T18:31:26.679Z,6.37
2022-10-11T18:34:03.889Z,4.97
2022-10-11T18:36:31.532Z,9.10
2022-10-11T18:39:03.813Z,8.77
2022-10-11T18:41:32.102Z,8.10
2022-10-11T18:44:01.704Z,5.57
2022-10-11T18:46:28.393Z,6.13
2022-10-11T18:48:57.089Z,8.63
2022-10-11T18:51:33.030Z,9.45
2022-10-11T18:53:59.958Z,7.50
2022-10-11T18:56:27.642Z,4.67
2022-10-11T18:58:55.942Z,3.60
2022-10-11T19:01:38.205Z,3.60
2022-10-11T19:04:07.120Z,3.97
2022-10-11T19:06:36.700Z,6.72
2022-10-11T19:09:17.812Z,3.53
2022-10-11T19:11:45.199Z,7.40
2022-10-11T19:14:14.710Z,4.15
2022-10-11T19:16:46.156Z,3.63
2022-10-11T19:19:12.905Z,6.75
2022-10-11T19:21:39.658Z,5.03
2022-10-11T19:24:06.390Z,4.15
2022-10-11T19:26:36.833Z,11.98
2022-10-11T19:29:09.955Z,6.07
2022-10-11T19:31:42.451Z,9.18
2022-10-11T19:34:10.181Z,9.20
2022-10-11T19:36:37.148Z,6.80
2022-10-11T19:39:04.986Z,7.57
2022-10-11T19:41:32.400Z,6.15
2022-10-11T19:43:58.994Z,8.70
2022-10-11T19:46:49.893Z,4.83
2022-10-11T19:49:15.735Z,4.25
2022-10-11T19:51:42.073Z,6.63
2022-10-11T19:54:11.675Z,5.97
2022-10-11T19:56:38.131Z,3.88
2022-10-11T19:59:06.296Z,4.93
2022-10-11T20:01:34.232Z,7.07
2022-10-11T20:04:06.701Z,6.75
2022-10-11T20:06:38.387Z,5.78
2022-10-11T20:09:27.923Z,5.22
2022-10-11T20:11:53.383Z,6.73
2022-10-11T20:14:20.550Z,7.47
2022-10-11T20:16:49.974Z,11.75
2022-10-11T20:19:16.574Z,5.55
2022-10-11T20:21:43.894Z,5.82
2022-10-11T20:24:10.342Z,5.83
2022-10-11T20:26:36.763Z,7.90
2022-10-11T20:29:03.331Z,9.93
2022-10-11T20:31:32.800Z,12.95
2022-10-11T20:34:01.991Z,8.55
2022-10-11T20:36:30.103Z,7.93
2022-10-11T20:38:58.318Z,7.75
2022-10-11T20:41:34.245Z,8.88
2022-10-11T20:44:02.103Z,13.63
2022-10-11T20:46:31.448Z,9.13
2022-10-11T20:49:03.452Z,8.27
2022-10-11T20:51:31.327Z,8.10
2022-10-11T20:53:58.575Z,5.95
2022-10-11T20:56:25.019Z,10.02
2022-10-11T20:58:53.538Z,10.40
2022-10-11T21:01:22.790Z,7.10
2022-10-11T21:03:50.290Z,6.97
2022-10-11T21:06:16.633Z,3.42
2022-10-11T21:08:43.016Z,6.80
2022-10-11T21:11:10.486Z,3.92
2022-10-11T21:13:37.375Z,7.23
2022-10-11T21:16:10.795Z,3.92
2022-10-11T21:18:37.770Z,1.88
2022-10-11T21:21:09.373Z,1.42
2022-10-11T21:23:35.835Z,1.40
2022-10-11T21:26:11.264Z,4.33
2022-10-11T21:28:38.645Z,6.10
2022-10-11T21:31:10.553Z,2.67
2022-10-11T21:33:38.120Z,4.50
2022-10-11T21:36:09.556Z,1.90
2022-10-11T21:38:36.238Z,3.47
2022-10-11T21:41:07.465Z,6.15
2022-10-11T21:43:35.661Z,3.33
2022-10-11T21:46:20.017Z,6.65
2022-10-11T21:48:47.266Z,3.47
2022-10-11T21:51:15.529Z,5.17
2022-10-11T21:53:41.984Z,5.75
2022-10-11T21:56:08.846Z,8.18
2022-10-11T21:58:35.270Z,4.40
2022-10-11T22:01:01.628Z,5.70
2022-10-11T22:03:28.224Z,8.53
2022-10-11T22:05:54.711Z,4.53
2022-10-11T22:08:21.228Z,3.58
2022-10-11T22:10:56.411Z,5.38
2022-10-11T22:13:24.254Z,4.03
2022-10-11T22:15:50.868Z,4.47
2022-10-11T22:18:17.383Z,4.22
2022-10-11T22:20:43.972Z,5.20
2022-10-11T22:23:11.496Z,4.70
2022-10-11T22:25:38.994Z,4.90
2022-10-11T22:28:06.619Z,4.43
2022-10-11T22:30:33.630Z,4.65
2022-10-11T22:32:59.970Z,7.53
2022-10-11T22:35:26.613Z,2.80
2022-10-11T22:37:53.195Z,6.00
2022-10-11T22:40:20.475Z,3.37
2022-10-11T22:42:46.918Z,6.93
2022-10-11T22:45:13.283Z,7.65
2022-10-11T22:47:39.628Z,5.60
2022-10-11T22:50:06.178Z,4.85
2022-10-11T22:52:32.564Z,5.77
2022-10-11T22:54:58.974Z,3.40
2022-10-11T22:57:25.343Z,4.85
2022-10-11T22:59:51.659Z,3.20
2022-10-11T23:02:18.006Z,11.98
2022-10-11T23:04:44.363Z,3.40
2022-10-11T23:07:10.711Z,7.88
2022-10-11T23:09:37.031Z,6.63
2022-10-11T23:12:03.522Z,7.65
2022-10-11T23:14:29.862Z,7.47
2022-10-11T23:16:56.187Z,7.33
2022-10-11T23:19:22.524Z,6.85
2022-10-11T23:21:48.876Z,6.07
2022-10-11T23:24:15.216Z,5.70
2022-10-11T23:26:41.560Z,5.63
2022-10-11T23:29:07.975Z,4.70
2022-10-11T23:31:34.481Z,5.20
2022-10-11T23:34:00.806Z,6.13
2022-10-11T23:36:27.224Z,8.23
2022-10-11T23:38:56.055Z,6.35
2022-10-11T23:41:24.349Z,11.50
2022-10-11T23:43:50.872Z,17.48
2022-10-11T23:46:17.264Z,10.13
2022-10-11T23:48:43.653Z,10.98
2022-10-11T23:51:10.238Z,14.05
2022-10-11T23:53:36.990Z,10.23
2022-10-11T23:56:04.697Z,4.55
2022-10-11T23:58:31.335Z,6.70
